createdAt,value
2022-10-14T00:03:09.525Z,99.90
2022-10-14T00:08:12.437Z,99.90
2022-10-14T00:13:15.212Z,99.90
2022-10-14T00:18:17.963Z,99.90
2022-10-14T00:23:20.908Z,99.90
2022-10-14T00:28:23.711Z,99.90
2022-10-14T00:33:27.663Z,99.90
2022-10-14T00:38:30.248Z,99.90
2022-10-14T00:43:57.374Z,99.90
2022-10-14T00:49:05.478Z,99.90
2022-10-14T00:54:08.481Z,99.90
2022-10-14T00:59:11.820Z,99.90
2022-10-14T01:04:14.661Z,99.90
2022-10-14T01:09:20.547Z,99.90
2022-10-14T01:14:31.732Z,99.90
2022-10-14T01:20:05.271Z,99.90
2022-10-14T01:25:35.400Z,99.90
2022-10-14T01:30:43.502Z,99.90
2022-10-14T01:35:56.296Z,99.90
2022-10-14T01:41:01.893Z,99.90
2022-10-14T01:46:06.271Z,99.90
2022-10-14T01:51:15.667Z,99.90
2022-10-14T01:56:18.848Z,99.90
2022-10-14T02:01:21.715Z,99.90
2022-10-14T02:06:36.201Z,99.90
2022-10-14T02:12:04.956Z,99.90
2022-10-14T02:17:11.563Z,99.90
2022-10-14T02:22:36.374Z,99.90
2022-10-14T02:27:39.974Z,99.90
2022-10-14T02:32:43.508Z,99.90
2022-10-14T02:37:47.865Z,99.90
2022-10-14T02:42:50.691Z,99.90
2022-10-14T02:47:54.649Z,99.90
2022-10-14T02:52:57.517Z,99.90
2022-10-14T02:58:00.357Z,99.90
2022-10-14T03:03:03.615Z,99.90
2022-10-14T03:08:06.282Z,99.90
2022-10-14T03:13:09.133Z,99.90
2022-10-14T03:18:11.980Z,99.90
2022-10-14T03:23:14.813Z,99.90
2022-10-14T03:28:17.469Z,99.90
2022-10-14T03:33:20.737Z,99.90
2022-10-14T03:38:23.588Z,99.90
2022-10-14T03:43:26.457Z,99.90
2022-10-14T03:48:29.201Z,99.90
2022-10-14T03:53:32.050Z,99.90
2022-10-14T03:58:35.075Z,99.90
2022-10-14T04:03:37.847Z,99.90
2022-10-14T04:08:41.109Z,99.90
2022-10-14T04:13:45.383Z,99.90
2022-10-14T04:18:47.993Z,99.90
2022-10-14T04:23:51.184Z,99.90
2022-10-14T04:28:54.861Z,99.90
2022-10-14T04:33:57.775Z,99.90
2022-10-14T04:39:00.598Z,99.90
2022-10-14T04:44:03.471Z,99.90
2022-10-14T04:49:06.669Z,99.90
2022-10-14T04:54:10.217Z,99.90
2022-10-14T04:59:13.830Z,99.90
2022-10-14T05:04:16.641Z,99.90
2022-10-14T05:09:19.486Z,99.90
2022-10-14T05:14:22.746Z,99.90
2022-10-14T05:19:25.876Z,99.90
2022-10-14T05:24:28.712Z,99.90
2022-10-14T05:29:31.599Z,99.90
2022-10-14T05:34:35.153Z,99.90
2022-10-14T05:39:37.946Z,99.90
2022-10-14T05:44:40.766Z,99.90
2022-10-14T05:49:43.452Z,99.90
2022-10-14T05:54:46.312Z,99.90
2022-10-14T05:59:49.099Z,99.90
2022-10-14T06:04:52.789Z,99.90
2022-10-14T06:09:55.663Z,99.90
2022-10-14T06:14:58.974Z,99.90
2022-10-14T06:20:01.898Z,99.90
2022-10-14T06:25:05.229Z,99.90
2022-10-14T06:30:08.950Z,99.90
2022-10-14T06:35:12.112Z,99.90
2022-10-14T06:40:14.933Z,99.90
2022-10-14T06:45:17.829Z,99.90
2022-10-14T06:50:21.180Z,99.90
2022-10-14T06:55:24.009Z,99.90
2022-10-14T07:00:26.943Z,99.90
2022-10-14T07:05:30.045Z,99.90
2022-10-14T07:10:32.905Z,99.90
2022-10-14T07:15:37.893Z,99.90
2022-10-14T07:20:40.582Z,99.90
2022-10-14T07:25:43.532Z,99.90
2022-10-14T07:30:46.396Z,99.90
2022-10-14T07:35:49.135Z,99.90
2022-10-14T07:41:06.558Z,99.90
2022-10-14T07:46:09.683Z,99.90
2022-10-14T07:51:12.577Z,99.90
2022-10-14T07:56:15.402Z,99.90
2022-10-14T08:01:18.988Z,99.90
2022-10-14T08:06:22.029Z,99.90
2022-10-14T08:11:28.634Z,99.90
2022-10-14T08:16:33.878Z,99.90
2022-10-14T08:21:37.363Z,99.90
2022-10-14T08:26:48.945Z,99.90
2022-10-14T08:31:52.530Z,99.90
2022-10-14T08:36:55.481Z,99.90
2022-10-14T08:42:20.938Z,99.90
2022-10-14T08:47:30.914Z,99.90
2022-10-14T08:52:43.774Z,99.90
2022-10-14T08:57:57.378Z,99.90
2022-10-14T09:03:02.915Z,99.90
2022-10-14T09:08:08.239Z,99.90
2022-10-14T09:13:22.753Z,99.90
2022-10-14T09:19:01.152Z,99.90
2022-10-14T09:24:10.127Z,99.90
2022-10-14T09:29:57.296Z,99.70
2022-10-14T09:35:00.430Z,98.80
2022-10-14T09:40:23.423Z,98.10
2022-10-14T09:45:28.105Z,98.10
2022-10-14T09:50:48.641Z,98.00
2022-10-14T09:55:57.988Z,97.50
2022-10-14T10:01:02.006Z,97.60
2022-10-14T10:06:07.218Z,97.00
2022-10-14T10:11:14.164Z,96.50
2022-10-14T10:16:31.445Z,96.30
2022-10-14T10:21:34.220Z,96.10
2022-10-14T10:26:37.026Z,95.60
2022-10-14T10:31:42.923Z,95.30
2022-10-14T10:36:57.580Z,94.70
2022-10-14T10:42:09.745Z,94.00
2022-10-14T10:47:31.558Z,93.00
2022-10-14T10:53:01.445Z,89.30
2022-10-14T10:58:38.127Z,90.40
2022-10-14T11:04:22.029Z,89.20
2022-10-14T11:09:57.768Z,86.40
2022-10-14T11:15:30.264Z,83.70
2022-10-14T11:20:40.170Z,80.00
2022-10-14T11:25:49.895Z,71.40
2022-10-14T11:31:14.609Z,76.20
2022-10-14T11:36:31.610Z,69.90
2022-10-14T11:41:59.129Z,69.60
2022-10-14T11:47:05.882Z,65.80
2022-10-14T11:52:16.259Z,63.20
2022-10-14T11:57:30.130Z,59.90
2022-10-14T12:02:45.109Z,61.40
2022-10-14T12:08:06.748Z,62.80
2022-10-14T12:13:14.599Z,63.40
2022-10-14T12:18:19.683Z,64.80
2022-10-14T12:23:32.835Z,65.40
2022-10-14T12:28:40.549Z,66.50
2022-10-14T12:34:11.295Z,67.50
2022-10-14T12:39:17.186Z,68.50
2022-10-14T12:44:27.512Z,69.80
2022-10-14T12:49:33.576Z,70.70
2022-10-14T12:54:38.044Z,70.70
2022-10-14T12:59:41.470Z,71.20
2022-10-14T13:04:53.248Z,71.40
2022-10-14T13:10:00.767Z,71.90
2022-10-14T13:15:31.529Z,71.80
2022-10-14T13:20:34.342Z,72.30
2022-10-14T13:25:37.274Z,72.80
2022-10-14T13:30:54.238Z,73.20
2022-10-14T13:36:12.406Z,73.30
2022-10-14T13:41:18.784Z,73.40
2022-10-14T13:46:25.796Z,73.70
2022-10-14T13:51:40.750Z,74.20
2022-10-14T13:56:44.317Z,74.10
2022-10-14T14:01:47.701Z,74.70
2022-10-14T14:07:06.881Z,75.10
2022-10-14T14:12:15.570Z,75.80
2022-10-14T14:17:23.430Z,76.60
2022-10-14T14:22:28.221Z,77.70
2022-10-14T14:27:33.856Z,77.80
2022-10-14T14:32:36.765Z,78.50
2022-10-14T14:37:55.099Z,79.00
2022-10-14T14:43:01.935Z,79.40
2022-10-14T14:48:06.906Z,79.60
2022-10-14T14:53:21.144Z,79.80
2022-10-14T14:58:30.079Z,79.90
2022-10-14T15:04:13.374Z,80.90
2022-10-14T15:09:31.765Z,81.30
2022-10-14T15:14:50.993Z,83.60
2022-10-14T15:19:54.486Z,84.20
2022-10-14T15:24:58.975Z,85.50
2022-10-14T15:30:18.086Z,85.40
2022-10-14T15:35:22.512Z,86.60
2022-10-14T15:40:30.852Z,87.20
2022-10-14T15:45:33.747Z,86.70
2022-10-14T15:50:37.282Z,86.50
2022-10-14T15:55:40.085Z,87.00
2022-10-14T16:00:43.454Z,88.50
2022-10-14T16:05:46.308Z,90.40
2022-10-14T16:10:49.392Z,91.20
2022-10-14T16:15:59.377Z,90.70
2022-10-14T16:21:02.289Z,91.40
2022-10-14T16:26:05.802Z,91.80
2022-10-14T16:31:12.717Z,92.70
2022-10-14T16:36:16.006Z,93.20
2022-10-14T16:41:18.894Z,93.10
2022-10-14T16:46:41.685Z,93.40
2022-10-14T16:51:44.877Z,93.50
2022-10-14T16:56:53.571Z,94.50
2022-10-14T17:01:56.335Z,94.60
2022-10-14T17:07:07.208Z,94.40
2022-10-14T17:12:13.824Z,95.00
2022-10-14T17:17:17.357Z,95.90
2022-10-14T17:22:21.185Z,96.60
2022-10-14T17:27:24.685Z,96.60
2022-10-14T17:32:30.231Z,96.40
2022-10-14T17:37:32.963Z,97.10
2022-10-14T17:42:35.785Z,98.40
2022-10-14T17:47:38.653Z,98.40
2022-10-14T17:52:41.462Z,98.70
2022-10-14T17:57:44.853Z,99.20
2022-10-14T18:02:47.620Z,99.90
2022-10-14T18:07:51.128Z,99.90
2022-10-14T18:12:54.432Z,99.90
2022-10-14T18:17:58.434Z,99.90
2022-10-14T18:23:02.964Z,99.90
2022-10-14T18:28:05.877Z,99.90
2022-10-14T18:33:08.627Z,99.90
2022-10-14T18:38:12.055Z,99.90
2022-10-14T18:43:14.900Z,99.90
2022-10-14T18:48:20.281Z,99.90
2022-10-14T18:53:24.267Z,99.90
2022-10-14T18:58:27.448Z,99.90
2022-10-14T19:03:30.278Z,99.90
2022-10-14T19:08:35.831Z,99.90
2022-10-14T19:13:45.363Z,99.90
2022-10-14T19:18:52.435Z,99.90
2022-10-14T19:23:55.681Z,99.90
2022-10-14T19:29:02.853Z,99.90
2022-10-14T19:34:08.095Z,99.90
2022-10-14T19:39:13.377Z,99.90
2022-10-14T19:44:16.756Z,99.90
2022-10-14T19:49:19.658Z,99.90
2022-10-14T19:54:22.428Z,99.90
2022-10-14T19:59:25.218Z,99.90
2022-10-14T20:04:28.040Z,99.90
2022-10-14T20:09:30.849Z,99.90
2022-10-14T20:14:33.581Z,99.90
2022-10-14T20:19:37.682Z,99.90
2022-10-14T20:24:40.493Z,99.90
2022-10-14T20:29:43.340Z,99.90
2022-10-14T20:34:46.242Z,99.90
2022-10-14T20:39:49.596Z,99.90
2022-10-14T20:44:52.459Z,99.90
2022-10-14T20:49:55.852Z,99.90
2022-10-14T20:54:58.684Z,99.90
2022-10-14T21:00:01.472Z,99.90
2022-10-14T21:05:05.668Z,99.90
2022-10-14T21:10:09.261Z,99.90
2022-10-14T21:15:12.197Z,99.90
2022-10-14T21:20:15.711Z,99.90
2022-10-14T21:25:18.599Z,99.90
2022-10-14T21:30:21.369Z,99.90
2022-10-14T21:35:24.543Z,99.90
2022-10-14T21:40:27.394Z,99.90
2022-10-14T21:45:30.281Z,99.90
2022-10-14T21:50:33.072Z,99.90
2022-10-14T21:55:35.853Z,99.90
2022-10-14T22:00:38.707Z,99.90
2022-10-14T22:05:41.493Z,99.90
2022-10-14T22:10:45.435Z,99.90
2022-10-14T22:15:48.285Z,99.90
2022-10-14T22:20:59.351Z,99.90
2022-10-14T22:26:04.509Z,99.90
2022-10-14T22:31:13.160Z,99.90
2022-10-14T22:36:20.859Z,99.90
2022-10-14T22:41:29.817Z,99.90
2022-10-14T22:46:37.013Z,99.90
2022-10-14T22:51:40.709Z,99.90
2022-10-14T22:56:43.783Z,99.90
2022-10-14T23:01:46.594Z,99.90
2022-10-14T23:06:50.113Z,99.90
2022-10-14T23:11:53.985Z,99.90
2022-10-14T23:16:56.740Z,99.90
2022-10-14T23:21:59.346Z,99.90
2022-10-14T23:27:02.127Z,99.90
2022-10-14T23:32:05.077Z,99.90
2022-10-14T23:37:07.916Z,99.90
2022-10-14T23:42:10.870Z,99.90
2022-10-14T23:47:13.703Z,99.90
2022-10-14T23:52:16.459Z,99.90
2022-10-14T23:57:20.135Z,99.90
